createdAt,value
2022-08-17T00:00:43.626Z,13.68
2022-08-17T00:05:43.744Z,13.13
2022-08-17T00:10:50.617Z,15.18
2022-08-17T00:15:57.965Z,12.38
2022-08-17T00:21:02.687Z,13.57
2022-08-17T00:26:08.842Z,12.05
2022-08-17T00:31:13.411Z,13.40
2022-08-17T00:36:17.389Z,13.57
2022-08-17T00:41:25.957Z,12.18
2022-08-17T00:46:32.451Z,13.05
2022-08-17T00:51:43.748Z,11.23
2022-08-17T00:56:58.161Z,14.02
2022-08-17T01:02:02.663Z,14.70
2022-08-17T01:07:08.285Z,12.18
2022-08-17T01:12:13.681Z,10.73
2022-08-17T01:17:17.514Z,12.48
2022-08-17T01:22:24.332Z,12.25
2022-08-17T01:27:28.851Z,14.18
2022-08-17T01:32:32.868Z,11.00
2022-08-17T01:37:40.084Z,14.27
2022-08-17T01:42:47.921Z,12.95
2022-08-17T01:47:52.087Z,12.85
2022-08-17T01:53:01.568Z,12.80
2022-08-17T01:58:09.669Z,13.23
2022-08-17T02:03:13.225Z,14.43
2022-08-17T02:08:20.423Z,12.02
2022-08-17T02:13:36.054Z,11.35
2022-08-17T02:18:39.485Z,13.05
2022-08-17T02:23:48.551Z,12.75
2022-08-17T02:28:52.175Z,14.82
2022-08-17T02:34:00.459Z,13.80
2022-08-17T02:39:12.704Z,14.48
2022-08-17T02:44:35.487Z,12.43
2022-08-17T02:49:40.118Z,13.95
2022-08-17T02:54:45.231Z,12.57
2022-08-17T02:59:49.239Z,14.20
2022-08-17T03:04:52.769Z,16.13
2022-08-17T03:09:57.646Z,11.82
2022-08-17T03:15:04.582Z,17.75
2022-08-17T03:20:09.544Z,13.50
2022-08-17T03:25:16.845Z,13.27
2022-08-17T03:30:26.242Z,11.75
2022-08-17T03:35:32.232Z,11.75
2022-08-17T03:40:59.130Z,13.85
2022-08-17T03:46:34.266Z,13.45
2022-08-17T03:51:56.391Z,11.25
2022-08-17T03:57:06.028Z,17.08
2022-08-17T04:02:12.955Z,15.70
2022-08-17T04:07:16.467Z,22.65
2022-08-17T04:12:23.989Z,25.58
2022-08-17T04:17:29.279Z,15.38
2022-08-17T04:22:34.409Z,14.05
2022-08-17T04:27:39.404Z,11.75
2022-08-17T04:33:10.584Z,13.15
2022-08-17T04:38:15.913Z,11.10
2022-08-17T04:43:22.976Z,16.58
2022-08-17T04:48:35.332Z,12.10
2022-08-17T04:53:40.529Z,11.80
2022-08-17T04:58:46.826Z,15.43
2022-08-17T05:03:50.667Z,12.35
2022-08-17T05:08:55.366Z,10.82
2022-08-17T05:14:00.832Z,10.88
2022-08-17T05:19:05.202Z,11.82
2022-08-17T05:24:16.751Z,12.77
2022-08-17T05:29:35.811Z,10.27
2022-08-17T05:34:39.434Z,10.80
2022-08-17T05:39:42.969Z,10.52
2022-08-17T05:44:48.061Z,10.15
2022-08-17T05:49:51.649Z,13.63
2022-08-17T05:55:10.124Z,9.10
2022-08-17T06:00:20.391Z,11.70
2022-08-17T06:05:37.359Z,20.90
2022-08-17T06:10:48.762Z,9.85
2022-08-17T06:16:03.459Z,10.32
2022-08-17T06:21:13.204Z,8.15
2022-08-17T06:26:22.409Z,14.20
2022-08-17T06:31:36.848Z,8.68
2022-08-17T06:36:50.688Z,7.10
2022-08-17T06:42:06.961Z,8.38
2022-08-17T06:47:15.761Z,8.23
2022-08-17T06:52:45.316Z,8.55
2022-08-17T06:57:53.148Z,7.57
2022-08-17T07:03:03.862Z,7.15
2022-08-17T07:08:18.710Z,8.23
2022-08-17T07:13:33.247Z,7.00
2022-08-17T07:18:38.407Z,7.75
2022-08-17T07:23:56.260Z,7.53
2022-08-17T07:29:02.460Z,7.25
2022-08-17T07:34:14.634Z,8.70
2022-08-17T07:39:28.948Z,6.57
2022-08-17T07:44:32.574Z,6.65
2022-08-17T07:49:41.195Z,6.55
2022-08-17T07:54:44.705Z,8.02
2022-08-17T08:00:31.413Z,6.78
2022-08-17T08:05:50.958Z,7.40
2022-08-17T08:11:07.783Z,7.20
2022-08-17T08:16:22.756Z,10.05
2022-08-17T08:21:47.894Z,6.53
2022-08-17T08:26:59.418Z,6.45
2022-08-17T08:32:13.329Z,6.53
2022-08-17T08:37:34.559Z,5.35
2022-08-17T08:42:47.152Z,12.57
2022-08-17T08:48:23.084Z,6.68
2022-08-17T08:53:48.671Z,6.35
2022-08-17T08:58:59.534Z,8.20
2022-08-17T09:04:25.573Z,6.18
2022-08-17T09:09:48.040Z,6.30
2022-08-17T09:14:59.607Z,8.25
2022-08-17T09:20:27.180Z,7.50
2022-08-17T09:25:43.379Z,6.80
2022-08-17T09:30:49.490Z,5.97
2022-08-17T09:35:57.348Z,7.32
2022-08-17T09:41:17.677Z,6.47
2022-08-17T09:46:26.667Z,11.45
2022-08-17T09:51:34.814Z,7.63
2022-08-17T09:57:11.490Z,6.60
2022-08-17T10:02:32.437Z,8.50
2022-08-17T10:07:46.627Z,5.80
2022-08-17T10:12:58.284Z,5.45
2022-08-17T10:18:18.501Z,6.82
2022-08-17T10:23:44.753Z,7.43
2022-08-17T10:28:53.962Z,7.97
2022-08-17T10:34:13.251Z,7.22
2022-08-17T10:39:31.809Z,7.00
2022-08-17T10:44:50.248Z,6.43
2022-08-17T10:49:56.107Z,6.78
2022-08-17T10:55:15.276Z,5.85
2022-08-17T11:01:02.349Z,6.18
2022-08-17T11:06:19.526Z,6.80
2022-08-17T11:12:01.500Z,7.28
2022-08-17T11:17:16.726Z,7.50
2022-08-17T11:23:11.504Z,14.32
2022-08-17T11:28:23.241Z,14.80
2022-08-17T11:33:57.862Z,10.95
2022-08-17T11:39:19.461Z,8.70
2022-08-17T11:44:37.824Z,10.10
2022-08-17T11:50:15.111Z,11.55
2022-08-17T11:55:54.284Z,13.43
2022-08-17T12:01:00.959Z,7.18
2022-08-17T12:06:08.240Z,7.82
2022-08-17T12:11:19.044Z,6.85
2022-08-17T12:16:44.789Z,8.57
2022-08-17T12:21:53.882Z,5.55
2022-08-17T12:27:00.246Z,6.93
2022-08-17T12:32:08.493Z,6.18
2022-08-17T12:37:16.720Z,6.40
2022-08-17T12:42:25.812Z,7.18
2022-08-17T12:47:31.950Z,6.50
2022-08-17T12:52:39.679Z,6.05
2022-08-17T12:57:45.887Z,15.38
2022-08-17T13:02:52.867Z,8.25
2022-08-17T13:07:58.626Z,7.35
2022-08-17T13:13:05.460Z,8.43
2022-08-17T13:18:31.712Z,8.02
2022-08-17T13:23:35.557Z,6.45
2022-08-17T13:28:39.156Z,5.63
2022-08-17T13:33:45.094Z,10.68
2022-08-17T13:38:51.080Z,8.10
2022-08-17T13:43:54.657Z,11.95
2022-08-17T13:49:02.288Z,6.78
2022-08-17T13:54:20.239Z,8.52
2022-08-17T13:59:53.900Z,6.78
2022-08-17T14:04:55.972Z,7.22
2022-08-17T14:10:02.483Z,5.20
2022-08-17T14:15:07.780Z,6.10
2022-08-17T14:20:15.174Z,5.63
2022-08-17T14:25:21.087Z,7.75
2022-08-17T14:30:28.991Z,7.68
2022-08-17T14:41:26.607Z,7.30
2022-08-17T14:46:30.350Z,5.88
2022-08-17T14:51:33.831Z,7.22
2022-08-17T14:56:38.818Z,8.70
2022-08-17T15:01:43.059Z,7.82
2022-08-17T15:06:47.470Z,6.80
2022-08-17T15:11:53.330Z,10.55
2022-08-17T15:16:56.800Z,9.43
2022-08-17T15:22:00.395Z,6.43
2022-08-17T15:27:06.068Z,9.05
2022-08-17T15:32:09.834Z,6.80
2022-08-17T15:37:13.695Z,7.40
2022-08-17T15:42:19.077Z,7.00
2022-08-17T15:47:23.527Z,7.97
2022-08-17T15:52:29.799Z,11.27
2022-08-17T15:57:35.583Z,9.13
2022-08-17T16:03:20.363Z,9.45
2022-08-17T16:08:03.276Z,13.05
2022-08-17T16:13:17.324Z,10.55
2022-08-17T16:18:21.931Z,9.85
2022-08-17T16:23:25.725Z,9.50
2022-08-17T16:28:35.922Z,10.70
2022-08-17T16:33:40.591Z,9.15
2022-08-17T16:38:44.585Z,12.68
2022-08-17T16:43:51.109Z,12.02
2022-08-17T16:48:54.856Z,12.27
2022-08-17T16:53:59.476Z,8.15
2022-08-17T16:59:29.930Z,7.53
2022-08-17T17:04:35.131Z,11.25
2022-08-17T17:09:40.339Z,8.90
2022-08-17T17:14:59.361Z,9.35
2022-08-17T17:20:09.795Z,9.18
2022-08-17T17:25:20.593Z,8.27
2022-08-17T17:30:29.283Z,10.07
2022-08-17T17:35:37.204Z,12.23
2022-08-17T17:40:45.021Z,11.57
2022-08-17T17:45:55.097Z,9.88
2022-08-17T17:52:08.500Z,11.82
2022-08-17T17:56:51.621Z,9.68
2022-08-17T18:02:04.554Z,9.00
2022-08-17T18:07:18.956Z,10.60
2022-08-17T18:12:31.824Z,9.02
2022-08-17T18:17:36.747Z,9.55
2022-08-17T18:22:40.148Z,9.70
2022-08-17T18:27:52.374Z,10.30
2022-08-17T18:33:23.890Z,9.25
2022-08-17T18:38:30.785Z,10.02
2022-08-17T18:43:52.867Z,9.52
2022-08-17T18:49:00.916Z,9.93
2022-08-17T18:54:15.861Z,10.40
2022-08-17T18:59:41.106Z,9.13
2022-08-17T19:05:02.054Z,9.75
2022-08-17T19:10:46.574Z,10.10
2022-08-17T19:16:12.248Z,9.93
2022-08-17T19:21:24.325Z,11.70
2022-08-17T19:26:53.690Z,9.10
2022-08-17T19:31:58.929Z,9.45
2022-08-17T19:37:11.200Z,9.88
2022-08-17T19:42:33.086Z,12.32
2022-08-17T19:47:55.125Z,9.52
2022-08-17T19:53:09.621Z,13.88
2022-08-17T19:58:34.656Z,10.85
2022-08-17T20:03:52.214Z,12.02
2022-08-17T20:09:02.573Z,11.38
2022-08-17T20:14:11.284Z,12.25
2022-08-17T20:19:23.791Z,11.88
2022-08-17T20:24:38.223Z,13.10
2022-08-17T20:30:10.674Z,10.48
2022-08-17T20:35:24.559Z,12.07
2022-08-17T20:40:36.407Z,12.00
2022-08-17T20:46:07.791Z,12.45
2022-08-17T20:51:19.365Z,12.23
2022-08-17T20:56:50.538Z,12.73
2022-08-17T21:02:19.036Z,12.70
2022-08-17T21:07:30.178Z,11.20
2022-08-17T21:12:43.578Z,13.93
2022-08-17T21:17:51.598Z,11.55
2022-08-17T21:23:12.345Z,10.95
2022-08-17T21:28:33.925Z,16.52
2022-08-17T21:33:40.874Z,14.27
2022-08-17T21:38:57.799Z,11.40
2022-08-17T21:44:12.353Z,9.77
2022-08-17T21:49:18.026Z,11.32
2022-08-17T21:54:31.428Z,13.65
2022-08-17T21:59:40.073Z,11.90
2022-08-17T22:04:44.501Z,11.13
2022-08-17T22:09:50.124Z,10.80
2022-08-17T22:15:02.614Z,11.07
2022-08-17T22:20:10.632Z,13.25
2022-08-17T22:25:25.923Z,10.50
2022-08-17T22:30:42.552Z,12.50
2022-08-17T22:35:47.974Z,11.93
2022-08-17T22:40:53.969Z,11.60
2022-08-17T22:46:01.038Z,10.88
2022-08-17T22:51:12.882Z,11.10
2022-08-17T22:56:37.692Z,11.02
2022-08-17T23:01:43.781Z,12.65
2022-08-17T23:06:47.161Z,10.80
2022-08-17T23:11:55.571Z,12.70
2022-08-17T23:17:00.826Z,11.15
2022-08-17T23:22:07.911Z,12.23
2022-08-17T23:27:12.232Z,14.27
2022-08-17T23:32:19.562Z,12.05
2022-08-17T23:37:23.013Z,12.15
2022-08-17T23:42:27.658Z,14.30
2022-08-17T23:47:32.812Z,14.98
2022-08-17T23:52:37.923Z,15.50
2022-08-17T23:57:41.690Z,13.52
